KWST/WST METAR and TAF weather

Enter ICAO airport designator
Station Type Date Time Source
KWST METAR 2022/06/30 13:53 UTC NOAA

KWST 301353Z AUTO 36006KT 10SM CLR 24/12 A3019 RMK AO2 SLP222 T02440122


Station Type Date Time Source
KWST Decoded METAR 2022/06/30 13:53 UTC NOAA

WESTERLY STATE AIRPORT, RI, United States (KWST) 41-21N 071-48W 21M
Jun 30, 2022 - 09:53 AM EDT / 2022.06.30 1353 UTC
Wind: from the N (360 degrees) at 7 MPH (6 KT):0
Visibility: 10 mile(s):0
Sky conditions: clear
Temperature: 75.9 F (24.4 C)
Dew Point: 54.0 F (12.2 C)
Relative Humidity: 46%
Pressure (altimeter): 30.19 in. Hg (1022 hPa)
ob: KWST 301353Z AUTO 36006KT 10SM CLR 24/12 A3019 RMK AO2 SLP222 T02440122
cycle: 14

Station Type Date Time Source
KWST TAF UTC NOAA

Error!

Example: see airport list